Time;durP1;ratioP1;P1;durP2;ratioP2;P2;SDS_P1;SDS_P2;PMS_P1;PMS_P2;Temp;Humidity;BMP_temperature;BMP_pressure;BME280_temperature;BME280_humidity;BME280_pressure;Samples;Min_cycle;Max_cycle;Signal;HPM_P1;HPM_P2
2022/07/10 00:00:20;;;;;;;3.83;0.90;;;;;;;15.98;100.00;102709.69;2614040;31;20466;-59
2022/07/10 00:02:49;;;;;;;3.38;0.80;;;;;;;16.02;100.00;102705.72;2613734;36;20436;-58
2022/07/10 00:05:17;;;;;;;1.95;0.80;;;;;;;16.05;100.00;102700.91;2614276;31;20054;-58
2022/07/10 00:07:45;;;;;;;1.97;0.90;;;;;;;16.08;100.00;102699.78;2613956;36;20034;-58
2022/07/10 00:10:14;;;;;;;2.75;1.10;;;;;;;16.00;100.00;102697.69;2613240;31;20536;-59
2022/07/10 00:12:45;;;;;;;4.70;1.00;;;;;;;16.10;100.00;102704.09;2614690;36;20034;-59
2022/07/10 00:15:15;;;;;;;3.40;0.95;;;;;;;16.03;100.00;102697.47;2614790;36;20307;-57
2022/07/10 00:17:44;;;;;;;4.32;1.13;;;;;;;15.85;100.00;102698.97;2613885;36;20034;-55
2022/07/10 00:20:14;;;;;;;3.28;0.88;;;;;;;16.00;100.00;102697.69;2613566;36;20575;-57
2022/07/10 00:22:43;;;;;;;3.70;0.80;;;;;;;16.06;100.00;102696.31;2614520;36;20043;-59
2022/07/10 00:25:14;;;;;;;1.60;0.80;;;;;;;16.15;100.00;102705.56;2614548;31;20031;-61
2022/07/10 00:27:45;;;;;;;2.63;1.00;;;;;;;16.08;100.00;102703.38;2614429;36;20562;-59
2022/07/10 00:30:14;;;;;;;1.45;0.85;;;;;;;16.02;100.00;102701.16;2613131;36;20038;-58
2022/07/10 00:32:42;;;;;;;5.85;1.10;;;;;;;16.09;100.00;102696.94;2614248;36;20037;-57
2022/07/10 00:35:11;;;;;;;4.30;0.70;;;;;;;16.27;100.00;102694.53;2614488;36;20061;-58
2022/07/10 00:37:39;;;;;;;4.32;0.80;;;;;;;16.15;100.00;102705.56;2613058;36;20415;-56
2022/07/10 00:40:09;;;;;;;1.70;0.80;;;;;;;16.11;100.00;102710.41;2615282;31;20053;-58
2022/07/10 00:42:37;;;;;;;6.20;0.93;;;;;;;15.90;100.00;102708.47;2614627;36;20704;-56
2022/07/10 00:45:10;;;;;;;2.50;0.80;;;;;;;15.98;100.00;102698.81;2613565;36;20123;-58
2022/07/10 00:47:38;;;;;;;4.40;1.05;;;;;;;15.58;100.00;102692.91;2614334;36;21100;-58
2022/07/10 00:50:09;;;;;;;5.17;1.13;;;;;;;15.49;100.00;102687.34;2613640;36;20139;-58
2022/07/10 00:52:38;;;;;;;3.38;1.00;;;;;;;15.50;100.00;102687.25;2613976;36;20674;-59
2022/07/10 00:55:08;;;;;;;5.07;0.98;;;;;;;15.55;100.00;102692.31;2614871;36;20034;-57
2022/07/10 00:57:37;;;;;;;7.55;1.48;;;;;;;15.73;100.00;102685.38;2613554;36;20030;-59
2022/07/10 01:00:13;;;;;;;3.30;1.00;;;;;;;15.63;100.00;102678.09;2614033;36;20034;-57
2022/07/10 01:02:44;;;;;;;4.18;1.00;;;;;;;15.64;100.00;102675.28;2614035;36;20038;-58
2022/07/10 01:05:13;;;;;;;3.80;0.95;;;;;;;15.70;100.00;102682.91;2614626;36;20030;-57
2022/07/10 01:07:42;;;;;;;1.98;0.95;;;;;;;15.78;100.00;102671.44;2613078;36;20124;-57
2022/07/10 01:10:10;;;;;;;5.53;1.00;;;;;;;15.89;100.00;102665.16;2612063;31;20053;-58
2022/07/10 01:12:40;;;;;;;3.75;1.02;;;;;;;15.89;100.00;102665.16;2614183;36;20302;-60
2022/07/10 01:15:12;;;;;;;2.45;0.90;;;;;;;15.80;100.00;102668.59;2614634;36;20038;-60
2022/07/10 01:17:41;;;;;;;3.95;1.00;;;;;;;15.75;100.00;102664.41;2612752;36;20050;-58
2022/07/10 01:20:10;;;;;;;4.93;1.10;;;;;;;15.72;100.00;102663.78;2613890;36;20035;-58
2022/07/10 01:22:41;;;;;;;5.72;0.95;;;;;;;15.76;100.00;102666.09;2613221;36;20045;-58
2022/07/10 01:25:10;;;;;;;3.40;1.02;;;;;;;15.82;100.00;102651.19;2614451;36;20169;-59
2022/07/10 01:27:39;;;;;;;7.95;1.42;;;;;;;15.75;100.00;102649.94;2614919;31;20642;-57
2022/07/10 01:30:08;;;;;;;2.50;0.90;;;;;;;15.80;100.00;102657.75;2613936;36;20034;-53
2022/07/10 01:32:40;;;;;;;4.50;1.10;;;;;;;15.73;100.00;102650.06;2613679;36;20034;-58
2022/07/10 01:35:10;;;;;;;4.65;1.23;;;;;;;15.84;100.00;102651.97;2614701;36;20663;-59
2022/07/10 01:37:41;;;;;;;2.42;0.85;;;;;;;15.87;100.00;102653.53;2613025;36;20030;-59
2022/07/10 01:40:11;;;;;;;2.38;0.90;;;;;;;15.70;100.00;102661.19;2615312;31;20040;-58
2022/07/10 01:42:40;;;;;;;2.55;1.10;;;;;;;15.71;100.00;102643.91;2613137;36;20034;-58
2022/07/10 01:45:09;;;;;;;4.03;0.85;;;;;;;15.77;100.00;102642.56;2614618;36;20117;-57
2022/07/10 01:47:38;;;;;;;2.63;1.00;;;;;;;15.70;100.00;102642.19;2613744;31;20030;-58
2022/07/10 01:50:08;;;;;;;3.05;0.90;;;;;;;15.77;100.00;102635.25;2613101;31;20054;-58
2022/07/10 01:52:36;;;;;;;7.88;1.15;;;;;;;15.88;100.00;102639.81;2614204;36;20038;-58
2022/07/10 01:55:08;;;;;;;3.05;0.90;;;;;;;15.87;100.00;102634.53;2613983;36;20034;-59
2022/07/10 01:57:37;;;;;;;5.47;1.15;;;;;;;15.85;100.00;102636.53;2614624;36;20472;-58
2022/07/10 02:00:07;;;;;;;1.73;1.00;;;;;;;15.90;100.00;102637.88;2614530;31;20286;-58
2022/07/10 02:02:36;;;;;;;4.10;1.30;;;;;;;15.78;100.00;102633.44;2613990;36;20606;-58
2022/07/10 02:05:01;;;;;;;1.40;0.87;;;;;;;15.82;100.00;102625.91;2614684;31;20089;-58
2022/07/10 02:07:32;;;;;;;3.67;1.00;;;;;;;15.96;100.00;102625.63;2613786;36;20030;-55
2022/07/10 02:10:01;;;;;;;5.03;1.02;;;;;;;15.94;100.00;102623.06;2613345;36;20046;-58
2022/07/10 02:12:32;;;;;;;1.87;0.90;;;;;;;15.96;100.00;102617.50;2614630;36;20057;-57
2022/07/10 02:15:01;;;;;;;4.93;1.08;;;;;;;15.83;100.00;102622.22;2614580;36;20821;-58
2022/07/10 02:17:30;;;;;;;5.25;1.00;;;;;;;15.84;100.00;102621.22;2614031;31;20532;-53
2022/07/10 02:19:58;;;;;;;2.70;0.82;;;;;;;15.86;100.00;102619.25;2615308;36;20026;-57
2022/07/10 02:22:26;;;;;;;2.20;1.10;;;;;;;15.82;100.00;102618.63;2615073;31;20113;-58
2022/07/10 02:24:54;;;;;;;4.30;1.00;;;;;;;15.92;100.00;102613.28;2614779;31;20058;-60
2022/07/10 02:27:23;;;;;;;7.80;1.40;;;;;;;15.84;100.00;102621.22;2614503;36;20038;-58
2022/07/10 02:29:53;;;;;;;1.52;0.88;;;;;;;15.81;100.00;102610.59;2614212;36;20031;-59
2022/07/10 02:32:22;;;;;;;2.78;0.90;;;;;;;15.80;100.00;102608.88;2614025;36;20053;-59
2022/07/10 02:34:50;;;;;;;1.93;0.80;;;;;;;15.90;100.00;102618.84;2614980;31;20058;-59
2022/07/10 02:37:18;;;;;;;4.83;1.10;;;;;;;15.83;100.00;102611.34;2614978;36;20080;-57
2022/07/10 02:39:47;;;;;;;3.30;1.13;;;;;;;15.80;100.00;102614.31;2615131;36;20046;-58
2022/07/10 02:42:15;;;;;;;2.38;0.93;;;;;;;15.88;100.00;102607.25;2614003;36;20552;-60
2022/07/10 02:44:43;;;;;;;2.10;0.90;;;;;;;15.72;100.00;102601.34;2615382;36;20034;-58
2022/07/10 02:47:14;;;;;;;3.13;0.90;;;;;;;15.69;100.00;102599.72;2615298;36;20034;-56
2022/07/10 02:49:43;;;;;;;6.40;1.33;;;;;;;15.82;100.00;102599.63;2614240;36;20030;-55
2022/07/10 02:52:11;;;;;;;3.35;0.90;;;;;;;15.84;100.00;102591.34;2614480;36;20039;-58
2022/07/10 02:54:40;;;;;;;2.15;0.80;;;;;;;15.77;100.00;102602.69;2614873;36;20041;-57
2022/07/10 02:57:08;;;;;;;4.50;1.00;;;;;;;15.87;100.00;102599.22;2614759;36;20046;-60
2022/07/10 02:59:37;;;;;;;1.13;0.73;;;;;;;15.90;100.00;102599.84;2614441;36;20057;-59
2022/07/10 03:02:06;;;;;;;1.87;1.00;;;;;;;15.87;100.00;102604.66;2613563;36;20575;-57
2022/07/10 03:04:37;;;;;;;2.20;1.00;;;;;;;15.82;100.00;102596.06;2614956;36;20183;-61
2022/07/10 03:07:06;;;;;;;2.70;1.08;;;;;;;15.84;100.00;102599.47;2614553;36;20030;-54
2022/07/10 03:09:34;;;;;;;6.80;1.20;;;;;;;15.82;100.00;102604.19;2614981;36;20405;-57
2022/07/10 03:12:02;;;;;;;6.13;1.20;;;;;;;15.88;100.00;102604.53;2615321;36;20431;-58
2022/07/10 03:14:31;;;;;;;4.03;1.07;;;;;;;15.94;100.00;102606.75;2614313;36;20459;-58
2022/07/10 03:16:59;;;;;;;6.53;1.10;;;;;;;15.86;100.00;102611.09;2613936;31;20505;-57
2022/07/10 03:19:27;;;;;;;5.77;1.00;;;;;;;15.93;100.00;102615.88;2614011;36;20053;-59
2022/07/10 03:21:58;;;;;;;10.80;1.40;;;;;;;15.93;100.00;102609.59;2614709;36;20057;-58
2022/07/10 03:24:26;;;;;;;3.00;0.98;;;;;;;15.85;100.00;102612.09;2614150;31;20058;-57
2022/07/10 03:26:55;;;;;;;4.63;1.13;;;;;;;15.85;100.00;102603.94;2614517;36;20041;-58
2022/07/10 03:29:23;;;;;;;3.53;1.13;;;;;;;15.90;100.00;102607.13;2613835;31;20037;-58
2022/07/10 03:31:51;;;;;;;2.67;0.90;;;;;;;15.91;100.00;102601.56;2614348;36;20037;-57
2022/07/10 03:34:19;;;;;;;5.80;1.20;;;;;;;15.88;100.00;102601.81;2613937;36;20306;-59
2022/07/10 03:36:48;;;;;;;3.20;1.10;;;;;;;15.98;100.00;102599.19;2614982;36;20042;-55
2022/07/10 03:39:19;;;;;;;7.45;1.40;;;;;;;16.00;100.00;102589.06;2614159;36;20523;-58
2022/07/10 03:41:47;;;;;;;4.50;1.48;;;;;;;15.93;100.00;102596.88;2614268;36;20034;-56
2022/07/10 03:44:15;;;;;;;3.15;0.98;;;;;;;15.89;100.00;102589.13;2613091;31;20034;-61
2022/07/10 03:46:44;;;;;;;4.90;1.08;;;;;;;15.91;100.00;102597.97;2615349;36;20038;-58
2022/07/10 03:49:12;;;;;;;4.78;1.08;;;;;;;15.82;100.00;102594.19;2613657;31;20038;-60
2022/07/10 03:51:40;;;;;;;5.37;0.87;;;;;;;15.87;100.00;102597.41;2615403;31;20542;-56
2022/07/10 03:54:08;;;;;;;6.07;1.37;;;;;;;15.77;100.00;102596.41;2614081;36;20065;-56
2022/07/10 03:59:20;;;;;;;4.53;1.02;;;;;;;15.83;100.00;102597.78;2614211;36;20121;-58
2022/07/10 04:01:48;;;;;;;3.75;1.00;;;;;;;15.84;100.00;102603.09;2614807;36;20088;-56
2022/07/10 04:04:16;;;;;;;3.00;1.10;;;;;;;15.83;100.00;102606.78;2612903;31;20030;-58
2022/07/10 04:06:45;;;;;;;4.70;1.05;;;;;;;15.85;100.00;102596.63;2614468;36;20031;-58
2022/07/10 04:09:13;;;;;;;3.88;1.30;;;;;;;15.83;100.00;102604.06;2613754;36;20082;-58
2022/07/10 04:11:44;;;;;;;7.28;1.25;;;;;;;15.75;100.00;102598.38;2614581;36;20563;-58
2022/07/10 04:14:12;;;;;;;4.25;1.20;;;;;;;15.73;100.00;102601.22;2613696;36;20034;-58
2022/07/10 04:16:40;;;;;;;5.00;1.30;;;;;;;15.83;100.00;102603.22;2613603;36;20031;-58
2022/07/10 04:19:09;;;;;;;5.00;1.50;;;;;;;15.90;100.00;102601.69;2614699;31;20075;-59
2022/07/10 04:21:37;;;;;;;3.40;1.10;;;;;;;15.87;100.00;102602.81;2613377;31;20050;-58
2022/07/10 04:24:05;;;;;;;2.20;0.93;;;;;;;16.01;100.00;102596.22;2613475;31;20065;-58
2022/07/10 04:26:34;;;;;;;11.00;1.53;;;;;;;16.08;100.00;102593.88;2613578;36;20416;-58
2022/07/10 04:29:04;;;;;;;7.88;1.42;;;;;;;16.04;100.00;102590.53;2614137;36;20291;-57
2022/07/10 04:31:33;;;;;;;6.47;1.20;;;;;;;16.08;100.00;102583.00;2614739;36;20042;-58
2022/07/10 04:34:02;;;;;;;5.93;1.10;;;;;;;15.91;100.00;102584.41;2613971;36;20062;-59
2022/07/10 04:36:30;;;;;;;;;;;;;;;15.90;100.00;102589.00;2613577;36;20042;-60
2022/07/10 04:38:58;;;;;;;4.93;1.67;;;;;;;15.88;100.00;102595.53;2614187;36;19981;-58
2022/07/10 04:41:27;;;;;;;4.78;1.42;;;;;;;15.99;100.00;102586.47;2614837;36;20121;-57
2022/07/10 04:43:55;;;;;;;2.23;1.17;;;;;;;15.92;100.00;102587.00;2613864;36;20050;-58
2022/07/10 04:46:26;;;;;;;4.40;1.20;;;;;;;15.99;100.00;102590.06;2613518;36;20271;-57
2022/07/10 04:48:54;;;;;;;5.35;1.40;;;;;;;15.91;100.00;102584.41;2613859;36;20626;-60
2022/07/10 04:51:23;;;;;;;3.80;1.60;;;;;;;15.95;100.00;102585.88;2614698;31;20030;-60
2022/07/10 04:53:52;;;;;;;5.47;1.60;;;;;;;16.19;100.00;102598.38;2614436;36;20030;-58
2022/07/10 04:56:20;;;;;;;5.50;1.20;;;;;;;16.02;100.00;102592.53;2614793;36;20035;-57
2022/07/10 04:58:48;;;;;;;8.65;1.33;;;;;;;15.88;100.00;102596.38;2614377;36;20086;-65
2022/07/10 05:01:16;;;;;;;4.20;1.23;;;;;;;15.87;100.00;102599.22;2613566;31;20061;-63
2022/07/10 05:03:47;;;;;;;6.13;1.30;;;;;;;15.81;100.00;102607.88;2613433;36;20551;-61
2022/07/10 05:06:16;;;;;;;5.53;1.65;;;;;;;15.71;100.00;102611.34;2613498;36;20030;-58
2022/07/10 05:08:44;;;;;;;2.92;1.20;;;;;;;15.69;100.00;102612.47;2613571;36;20034;-58
2022/07/10 05:11:12;;;;;;;5.10;1.20;;;;;;;15.47;100.00;102618.78;2614683;31;20031;-57
2022/07/10 05:13:44;;;;;;;3.85;1.35;;;;;;;15.57;100.00;102617.91;2614174;36;20041;-57
2022/07/10 05:16:12;;;;;;;5.20;1.50;;;;;;;15.45;100.00;102626.19;2613306;36;20030;-57
2022/07/10 05:18:41;;;;;;;5.65;1.48;;;;;;;15.47;100.00;102632.34;2613441;36;20042;-56
2022/07/10 05:21:12;;;;;;;5.13;1.83;;;;;;;15.66;100.00;102634.44;2614200;36;20580;-58
2022/07/10 05:23:41;;;;;;;6.32;1.60;;;;;;;15.70;100.00;102617.75;2614041;36;20594;-58
2022/07/10 05:26:09;;;;;;;3.55;1.27;;;;;;;15.70;100.00;102623.19;2614229;31;20408;-58
2022/07/10 05:28:38;;;;;;;2.92;1.33;;;;;;;15.61;100.00;102623.94;2613803;36;20034;-59
2022/07/10 05:31:07;;;;;;;5.45;1.50;;;;;;;15.66;100.00;102619.00;2613320;36;20031;-55
2022/07/10 05:33:38;;;;;;;6.50;1.52;;;;;;;15.55;100.00;102627.19;2607152;36;20042;-59
2022/07/10 05:36:07;;;;;;;6.22;1.40;;;;;;;15.62;100.00;102622.97;2614300;36;20069;-58
2022/07/10 05:38:38;;;;;;;5.93;1.35;;;;;;;15.47;100.00;102624.22;2613874;36;20077;-59
2022/07/10 05:41:06;;;;;;;6.82;1.70;;;;;;;15.57;100.00;102625.19;2614668;36;20045;-55
2022/07/10 05:43:34;;;;;;;6.78;1.75;;;;;;;15.45;100.00;102627.06;2613806;36;20086;-59
2022/07/10 05:46:03;;;;;;;5.40;1.60;;;;;;;15.21;100.00;102635.34;2613012;36;20034;-56
2022/07/10 05:48:34;;;;;;;6.50;1.70;;;;;;;15.38;100.00;102632.09;2615435;31;20027;-59
2022/07/10 05:51:02;;;;;;;6.47;1.83;;;;;;;15.33;100.00;102628.91;2614428;36;20045;-57
2022/07/10 05:53:31;;;;;;;6.87;2.00;;;;;;;15.34;100.00;102625.22;2613674;36;20022;-59
2022/07/10 05:56:05;;;;;;;4.50;1.58;;;;;;;15.43;100.00;102631.75;2614199;36;20042;-59
2022/07/10 05:58:33;;;;;;;3.20;1.45;;;;;;;15.56;100.00;102628.88;2613794;36;20042;-59
2022/07/10 06:01:01;;;;;;;3.92;1.48;;;;;;;15.59;100.00;102639.47;2613204;36;20039;-56
2022/07/10 06:03:29;;;;;;;7.60;2.00;;;;;;;15.61;100.00;102639.38;2613823;36;20053;-60
2022/07/10 06:05:58;;;;;;;4.03;1.88;;;;;;;15.54;100.00;102630.88;2613677;36;20081;-58
2022/07/10 06:08:26;;;;;;;5.10;1.70;;;;;;;15.55;100.00;102629.88;2613220;36;20069;-53
2022/07/10 06:10:55;;;;;;;5.22;1.80;;;;;;;15.70;100.00;102638.63;2613380;36;20035;-59
2022/07/10 06:13:26;;;;;;;4.43;1.55;;;;;;;15.82;100.00;102628.63;2613952;36;20030;-63
2022/07/10 06:15:54;;;;;;;6.15;1.42;;;;;;;15.83;100.00;102630.38;2613667;36;20062;-53
2022/07/10 06:18:22;;;;;;;5.60;1.92;;;;;;;15.88;100.00;102628.97;2613071;36;20511;-58
2022/07/10 06:20:50;;;;;;;5.53;1.50;;;;;;;15.92;100.00;102630.44;2614677;36;20053;-58
2022/07/10 06:23:18;;;;;;;5.07;1.63;;;;;;;15.93;100.00;102626.75;2613410;36;20161;-58
2022/07/10 06:25:48;;;;;;;4.03;1.30;;;;;;;16.01;100.00;102628.81;2614080;36;20552;-59
2022/07/10 06:28:16;;;;;;;2.08;1.42;;;;;;;15.97;100.00;102624.63;2612985;36;20042;-56
2022/07/10 06:30:48;;;;;;;3.93;1.20;;;;;;;15.89;100.00;102629.84;2613671;36;20039;-63
2022/07/10 06:33:16;;;;;;;6.35;1.50;;;;;;;15.89;100.00;102624.41;2614004;36;20058;-59
2022/07/10 06:35:44;;;;;;;3.57;1.40;;;;;;;15.99;100.00;102632.63;2614573;36;20030;-60
2022/07/10 06:38:13;;;;;;;3.97;1.25;;;;;;;16.16;100.00;102636.66;2613296;36;20149;-60
2022/07/10 06:40:41;;;;;;;5.15;1.05;;;;;;;16.06;100.00;102632.03;2613024;36;20038;-53
2022/07/10 06:43:09;;;;;;;3.07;1.10;;;;;;;16.15;100.00;102630.38;2614079;36;20069;-58
2022/07/10 06:45:38;;;;;;;4.03;1.20;;;;;;;16.30;100.00;102628.22;2614699;36;20035;-58
2022/07/10 06:48:06;;;;;;;3.57;1.20;;;;;;;16.29;100.00;102621.06;2613533;36;20061;-58
2022/07/10 06:50:35;;;;;;;2.38;1.38;;;;;;;16.40;100.00;102622.84;2613993;36;20046;-58
2022/07/10 06:53:03;;;;;;;3.43;1.37;;;;;;;16.21;100.00;102629.84;2614843;36;20452;-59
2022/07/10 06:55:32;;;;;;;4.43;1.52;;;;;;;16.18;100.00;102629.25;2613421;36;20307;-58
2022/07/10 06:58:01;;;;;;;;;;;;;;;16.26;100.00;102629.47;2614319;36;20034;-56
2022/07/10 07:00:29;;;;;;;3.60;1.40;;;;;;;16.41;100.00;102630.84;2613965;36;19951;-60
2022/07/10 07:02:58;;;;;;;2.15;1.20;;;;;;;16.38;100.00;102627.56;2613439;36;20388;-58
2022/07/10 07:05:29;;;;;;;7.60;1.30;;;;;;;16.57;100.00;102630.41;2614355;36;20453;-58
2022/07/10 07:07:57;;;;;;;4.88;1.20;;;;;;;16.64;100.00;102625.31;2614292;36;20030;-60
2022/07/10 07:10:25;;;;;;;4.00;1.17;;;;;;;16.76;100.00;102629.69;2614767;31;20042;-61
2022/07/10 07:12:53;;;;;;;4.40;1.20;;;;;;;16.84;100.00;102623.56;2614280;36;20065;-58
2022/07/10 07:15:23;;;;;;;2.87;1.10;;;;;;;16.86;100.00;102617.97;2614822;31;20490;-57
2022/07/10 07:18:12;;;;;;;2.65;1.27;;;;;;;16.64;100.00;102618.00;2613885;36;20034;-57
2022/07/10 07:23:25;;;;;;;4.35;1.42;;;;;;;16.83;100.00;102619.16;2613850;36;20129;-62
2022/07/10 07:25:55;;;;;;;5.35;1.42;;;;;;;16.74;100.00;102619.91;2613982;36;20074;-56
2022/07/10 07:28:23;;;;;;;3.78;1.50;;;;;;;16.80;100.00;102631.13;2613455;36;20088;-58
2022/07/10 07:30:52;;;;;;;5.20;1.17;;;;;;;16.86;100.00;102626.16;2614584;36;20034;-58
2022/07/10 07:33:21;;;;;;;5.25;1.30;;;;;;;16.86;100.00;102623.44;2614280;36;20535;-61
2022/07/10 07:35:52;;;;;;;3.83;1.20;;;;;;;16.58;100.00;102621.28;2613975;36;20030;-59
2022/07/10 07:38:20;;;;;;;2.75;1.13;;;;;;;16.73;100.00;102624.50;2614055;36;20057;-59
2022/07/10 07:40:48;;;;;;;4.27;1.17;;;;;;;16.59;100.00;102623.00;2614443;36;20035;-65
2022/07/10 07:43:17;;;;;;;7.20;1.47;;;;;;;16.79;100.00;102632.13;2614509;36;20551;-58
2022/07/10 07:45:45;;;;;;;3.20;1.30;;;;;;;16.91;100.00;102634.81;2614784;36;20556;-63
2022/07/10 07:48:13;;;;;;;5.70;1.30;;;;;;;16.94;100.00;102634.53;2614352;36;20030;-58
2022/07/10 07:50:42;;;;;;;3.37;1.30;;;;;;;17.08;100.00;102633.34;2614692;36;20133;-62
2022/07/10 07:53:13;;;;;;;4.20;1.58;;;;;;;17.18;100.00;102628.78;2614589;36;20034;-62
2022/07/10 07:55:41;;;;;;;2.08;1.02;;;;;;;17.16;100.00;102634.34;2614504;36;20412;-59
2022/07/10 07:58:10;;;;;;;5.20;1.30;;;;;;;17.44;100.00;102633.75;2613926;36;20666;-60
2022/07/10 08:00:38;;;;;;;3.25;1.30;;;;;;;17.51;100.00;102633.06;2613856;36;20034;-58
2022/07/10 08:03:06;;;;;;;5.33;1.20;;;;;;;17.56;100.00;102631.78;2613912;36;20038;-57
2022/07/10 08:05:34;;;;;;;2.07;1.20;;;;;;;17.54;100.00;102633.81;2613803;36;20767;-60
2022/07/10 08:08:06;;;;;;;3.47;1.10;;;;;;;17.35;100.00;102624.56;2613915;36;20077;-58
2022/07/10 08:10:37;;;;;;;2.88;1.20;;;;;;;17.58;100.00;102621.63;2614882;31;20562;-58
2022/07/10 08:13:06;;;;;;;2.05;1.20;;;;;;;17.82;100.00;102622.09;2614934;36;20038;-58
2022/07/10 08:15:35;;;;;;;5.20;1.30;;;;;;;17.83;100.00;102618.38;2614051;36;20454;-58
2022/07/10 08:18:04;;;;;;;4.03;1.13;;;;;;;17.80;100.00;102617.78;2614088;31;20030;-60
2022/07/10 08:20:33;;;;;;;2.15;1.10;;;;;;;17.64;100.00;102612.91;2614306;31;20092;-58
2022/07/10 08:23:01;;;;;;;5.15;1.35;;;;;;;17.65;100.00;102615.50;2614503;36;20034;-58
2022/07/10 08:25:32;;;;;;;5.90;1.45;;;;;;;17.48;100.00;102617.00;2613590;36;20065;-59
2022/07/10 08:28:05;;;;;;;3.70;1.23;;;;;;;17.84;100.00;102608.34;2614275;36;20042;-59
2022/07/10 08:30:34;;;;;;;3.17;1.27;;;;;;;17.84;100.00;102603.78;2614177;36;20552;-58
2022/07/10 08:33:03;;;;;;;3.85;1.23;;;;;;;18.19;100.00;102605.09;2614066;36;20038;-63
2022/07/10 08:35:31;;;;;;;2.50;1.20;;;;;;;18.37;100.00;102604.38;2614444;36;20069;-59
2022/07/10 08:37:59;;;;;;;1.95;1.17;;;;;;;18.48;100.00;102612.41;2613247;36;20057;-60
2022/07/10 08:40:36;;;;;;;2.08;1.05;;;;;;;18.87;100.00;102611.47;2615183;31;20046;-59
2022/07/10 08:43:07;;;;;;;3.67;1.20;;;;;;;18.84;100.00;102607.13;2615144;36;20034;-61
2022/07/10 08:45:36;;;;;;;3.47;1.13;;;;;;;18.78;100.00;102613.19;2615168;36;20041;-61
2022/07/10 08:48:06;;;;;;;3.97;1.40;;;;;;;18.57;100.00;102605.22;2615541;31;20057;-57
2022/07/10 08:50:36;;;;;;;2.65;1.10;;;;;;;18.93;100.00;102604.56;2615163;36;20034;-58
2022/07/10 08:53:11;;;;;;;2.90;1.20;;;;;;;18.97;100.00;102606.84;2615022;36;20035;-58
2022/07/10 08:55:40;;;;;;;3.08;1.20;;;;;;;19.00;100.00;102605.72;2614464;36;20042;-61
2022/07/10 08:58:12;;;;;;;3.72;1.35;;;;;;;19.24;100.00;102608.78;2615437;36;20401;-58
2022/07/10 09:00:40;;;;;;;2.00;1.00;;;;;;;19.58;100.00;102605.44;2614545;36;20053;-57
2022/07/10 09:03:10;;;;;;;2.17;1.08;;;;;;;19.54;100.00;102601.28;2614401;36;20045;-60
2022/07/10 09:05:38;;;;;;;4.07;1.25;;;;;;;19.55;100.00;102594.81;2615101;36;20034;-60
2022/07/10 09:08:23;;;;;;;2.97;1.08;;;;;;;20.01;100.00;102591.19;2614010;36;20069;-62
2022/07/10 09:10:51;;;;;;;4.45;1.30;;;;;;;20.37;100.00;102594.75;2614682;31;20038;-60
2022/07/10 09:13:24;;;;;;;1.42;1.00;;;;;;;20.47;100.00;102600.16;2615249;36;20061;-59
2022/07/10 09:15:53;;;;;;;2.88;1.13;;;;;;;20.40;100.00;102597.16;2615121;36;20420;-58
2022/07/10 09:18:25;;;;;;;1.77;1.00;;;;;;;20.46;100.00;102599.28;2614715;31;20126;-59
2022/07/10 09:20:54;;;;;;;2.85;1.30;;;;;;;20.04;100.00;102594.50;2613033;36;20061;-58
2022/07/10 09:23:25;;;;;;;3.03;1.30;;;;;;;20.07;100.00;102585.97;2613742;36;20049;-58
2022/07/10 09:25:55;;;;;;;2.30;1.10;;;;;;;20.07;100.00;102588.72;2613687;31;20037;-59
2022/07/10 09:28:26;;;;;;;2.53;1.05;;;;;;;19.83;100.00;102594.81;2612200;31;20061;-58
2022/07/10 09:30:54;;;;;;;1.27;0.90;;;;;;;19.76;100.00;102585.47;2613293;36;20034;-63
2022/07/10 09:33:29;;;;;;;2.95;1.08;;;;;;;19.79;100.00;102590.66;2614051;36;20035;-58
2022/07/10 09:36:08;;;;;;;3.42;1.40;;;;;;;20.11;100.00;102589.22;2615656;36;20513;-61
2022/07/10 09:38:53;;;;;;;3.35;1.50;;;;;;;20.01;100.00;102577.53;2614321;36;20043;-58
2022/07/10 09:41:24;;;;;;;1.40;0.90;;;;;;;20.15;100.00;102587.91;2614819;36;20035;-59
2022/07/10 09:43:56;;;;;;;2.65;1.08;;;;;;;20.03;100.00;102578.25;2615128;36;20038;-63
2022/07/10 09:46:26;;;;;;;3.33;1.15;;;;;;;19.73;100.00;102575.72;2615943;31;20548;-58
2022/07/10 09:49:09;;;;;;;3.30;1.30;;;;;;;20.33;100.00;102576.94;2614716;36;20034;-59
2022/07/10 09:51:39;;;;;;;2.00;1.00;;;;;;;20.77;100.00;102573.34;2615004;31;20038;-60
2022/07/10 09:54:10;;;;;;;2.95;1.27;;;;;;;21.13;100.00;102565.84;2613742;31;20042;-61
2022/07/10 09:56:44;;;;;;;2.25;0.80;;;;;;;21.68;100.00;102564.50;2613871;36;20469;-60
2022/07/10 09:59:16;;;;;;;4.65;1.10;;;;;;;21.39;100.00;102567.63;2610210;36;20038;-59
2022/07/10 10:01:47;;;;;;;2.38;1.10;;;;;;;21.37;100.00;102568.84;2612818;31;20035;-59
2022/07/10 10:04:18;;;;;;;2.13;1.02;;;;;;;21.20;100.00;102574.28;2613458;36;20030;-59
2022/07/10 10:06:49;;;;;;;1.67;1.20;;;;;;;20.81;100.00;102570.13;2613063;36;20042;-65
2022/07/10 10:09:23;;;;;;;1.23;0.82;;;;;;;20.37;100.00;102572.03;2613473;31;20073;-58
2022/07/10 10:11:56;;;;;;;3.95;1.25;;;;;;;20.17;100.00;102572.22;2613167;36;20049;-59
2022/07/10 10:14:28;;;;;;;1.73;1.08;;;;;;;19.86;100.00;102578.09;2613230;36;20061;-60
2022/07/10 10:16:58;;;;;;;4.45;1.30;;;;;;;19.64;100.00;102573.03;2613832;36;20039;-60
2022/07/10 10:22:08;;;;;;;3.47;1.00;;;;;;;21.05;100.00;102575.91;2613684;36;20548;-54
2022/07/10 10:24:39;;;;;;;3.50;1.05;;;;;;;21.17;100.00;102569.97;2616923;31;20034;-57
2022/07/10 10:27:08;;;;;;;3.63;1.20;;;;;;;21.43;100.00;102569.03;2612111;36;20051;-57
2022/07/10 10:29:41;;;;;;;2.53;1.10;;;;;;;21.12;100.00;102576.97;2613405;36;20058;-59
2022/07/10 10:32:11;;;;;;;1.60;1.00;;;;;;;21.12;100.00;102579.69;2609866;36;20034;-63
2022/07/10 10:34:44;;;;;;;6.50;1.13;;;;;;;20.91;100.00;102580.97;2613138;36;20038;-58
2022/07/10 10:37:39;;;;;;;2.25;1.20;;;;;;;20.65;100.00;102580.94;2612600;36;20042;-58
2022/07/10 10:40:09;;;;;;;1.02;0.93;;;;;;;20.71;100.00;102584.94;2610161;36;20065;-60
2022/07/10 10:42:39;;;;;;;2.00;1.20;;;;;;;20.30;100.00;102572.69;2613218;36;20031;-58
2022/07/10 10:45:36;;;;;;;1.40;1.05;;;;;;;20.47;100.00;102583.72;2612422;31;20045;-61
2022/07/10 10:48:08;;;;;;;5.35;1.20;;;;;;;20.35;100.00;102572.19;2612709;36;20146;-62
2022/07/10 10:50:41;;;;;;;2.83;1.23;;;;;;;20.43;100.00;102582.34;2610887;36;20066;-59
2022/07/10 10:53:15;;;;;;;1.38;1.10;;;;;;;20.43;100.00;102574.97;2605208;36;20104;-58
2022/07/10 10:56:04;;;;;;;3.58;1.75;;;;;;;20.79;100.00;102569.44;2612385;36;20552;-59
2022/07/10 10:58:41;;;;;;;3.03;1.20;;;;;;;20.83;100.00;102573.56;2612606;36;20089;-59
2022/07/10 11:01:28;;;;;;;2.78;1.00;;;;;;;20.56;100.00;102566.34;2612530;36;20045;-60
2022/07/10 11:04:19;;;;;;;2.70;1.13;;;;;;;21.11;100.00;102575.25;2612853;36;20467;-60
2022/07/10 11:06:49;;;;;;;1.33;0.90;;;;;;;21.84;100.00;102560.09;2613311;36;20452;-60
2022/07/10 11:09:28;;;;;;;2.10;1.10;;;;;;;21.89;100.00;102563.16;2611136;36;20034;-61
2022/07/10 11:12:05;;;;;;;2.97;1.00;;;;;;;22.08;100.00;102556.47;2613515;36;20477;-59
2022/07/10 11:14:34;;;;;;;2.05;0.98;;;;;;;22.10;100.00;102559.06;2613669;36;20030;-61
2022/07/10 11:17:06;;;;;;;3.10;1.10;;;;;;;21.98;100.00;102555.78;2614564;36;20073;-57
2022/07/10 11:19:36;;;;;;;1.73;0.90;;;;;;;21.59;100.00;102567.41;2611011;36;20149;-58
2022/07/10 11:22:32;;;;;;;1.00;0.85;;;;;;;21.46;100.00;102554.16;2613305;31;20035;-59
2022/07/10 11:25:22;;;;;;;3.45;1.17;;;;;;;21.06;100.00;102564.78;2612770;31;20034;-59
2022/07/10 11:28:09;;;;;;;2.55;1.10;;;;;;;21.19;100.00;102561.59;2613491;36;20039;-58
2022/07/10 11:30:48;;;;;;;2.33;1.05;;;;;;;20.84;100.00;102563.47;2614869;36;20034;-59
2022/07/10 11:33:20;;;;;;;6.05;1.30;;;;;;;21.23;100.00;102565.72;2613583;36;20110;-58
2022/07/10 11:35:49;;;;;;;3.45;1.02;;;;;;;20.92;100.00;102563.53;2613387;36;20444;-58
2022/07/10 11:38:25;;;;;;;4.75;1.10;;;;;;;21.02;100.00;102562.53;2614285;36;20045;-60